createdAt,value
2022-08-07T00:00:14.732Z,96425.22
2022-08-07T00:02:45.185Z,96424.09
2022-08-07T00:05:12.096Z,96424.09
2022-08-07T00:07:40.773Z,96423.75
2022-08-07T00:10:26.558Z,96422.00
2022-08-07T00:12:59.734Z,96409.94
2022-08-07T00:15:37.844Z,96415.19
2022-08-07T00:18:19.502Z,96413.66
2022-08-07T00:20:49.312Z,96418.91
2022-08-07T00:23:17.065Z,96410.97
2022-08-07T00:25:45.847Z,96418.06
2022-08-07T00:28:18.649Z,96413.75
2022-08-07T00:30:48.781Z,96414.72
2022-08-07T00:33:15.610Z,96417.16
2022-08-07T00:35:46.504Z,96412.28
2022-08-07T00:38:16.057Z,96410.25
2022-08-07T00:40:58.520Z,96410.97
2022-08-07T00:44:01.274Z,96408.66
2022-08-07T00:46:11.601Z,96411.91
2022-08-07T00:48:42.422Z,96414.34
2022-08-07T00:51:10.193Z,96411.81
2022-08-07T00:53:38.857Z,96414.00
2022-08-07T00:56:18.060Z,96413.41
2022-08-07T00:58:47.124Z,96411.22
2022-08-07T01:01:17.872Z,96410.16
2022-08-07T01:03:56.827Z,96407.16
2022-08-07T01:06:27.827Z,96412.69
2022-08-07T01:08:55.690Z,96411.09
2022-08-07T01:12:27.804Z,96412.28
2022-08-07T01:14:10.106Z,96402.81
2022-08-07T01:16:37.718Z,96414.72
2022-08-07T01:19:10.844Z,96419.84
2022-08-07T01:21:46.654Z,96424.94
2022-08-07T01:24:14.354Z,96414.00
2022-08-07T01:26:47.876Z,96418.31
2022-08-07T01:29:19.746Z,96420.75
2022-08-07T01:31:48.615Z,96410.50
2022-08-07T01:34:18.785Z,96422.84
2022-08-07T01:36:52.774Z,96420.66
2022-08-07T01:39:41.293Z,96423.28
2022-08-07T01:42:37.935Z,96422.16
2022-08-07T01:45:05.376Z,96418.66
2022-08-07T01:48:29.207Z,96410.06
2022-08-07T01:50:30.499Z,96419.97
2022-08-07T01:53:00.723Z,96421.00
2022-08-07T01:55:29.881Z,96417.16
2022-08-07T01:58:06.667Z,96411.13
2022-08-07T02:01:10.130Z,96411.56
2022-08-07T02:03:51.056Z,96411.13
2022-08-07T02:06:31.441Z,96417.28
2022-08-07T02:09:04.237Z,96422.63
2022-08-07T02:12:03.528Z,96424.75
2022-08-07T02:14:40.167Z,96417.41
2022-08-07T02:17:11.015Z,96417.88
2022-08-07T02:20:07.570Z,96414.63
2022-08-07T02:22:30.568Z,96417.41
2022-08-07T02:24:58.167Z,96424.03
2022-08-07T02:27:34.266Z,96423.00
2022-08-07T02:30:03.647Z,96417.66
2022-08-07T02:32:36.189Z,96421.34
2022-08-07T02:35:09.177Z,96417.66
2022-08-07T02:37:44.071Z,96420.31
2022-08-07T02:40:35.165Z,96423.00
2022-08-07T02:43:00.205Z,96429.38
2022-08-07T02:45:59.408Z,96423.47
2022-08-07T02:48:15.958Z,96424.38
2022-08-07T02:50:47.558Z,96428.13
2022-08-07T02:53:27.318Z,96415.78
2022-08-07T02:56:02.361Z,96417.66
2022-08-07T02:58:33.787Z,96424.03
2022-08-07T03:01:03.230Z,96412.56
2022-08-07T03:03:50.004Z,96415.00
2022-08-07T03:06:25.994Z,96422.19
2022-08-07T03:09:01.960Z,96418.25
2022-08-07T03:11:32.636Z,96423.91
2022-08-07T03:14:02.069Z,96421.72
2022-08-07T03:16:30.957Z,96420.66
2022-08-07T03:18:58.606Z,96421.00
2022-08-07T03:21:25.769Z,96419.28
2022-08-07T03:24:18.462Z,96414.88
2022-08-07T03:26:58.079Z,96418.13
2022-08-07T03:29:29.708Z,96424.38
2022-08-07T03:31:57.403Z,96430.69
2022-08-07T03:34:27.559Z,96432.28
2022-08-07T03:36:57.283Z,96426.03
2022-08-07T03:39:46.276Z,96437.88
2022-08-07T03:42:14.307Z,96440.91
2022-08-07T03:44:41.614Z,96445.44
2022-08-07T03:47:14.104Z,96441.13
2022-08-07T03:49:52.166Z,96446.50
2022-08-07T03:52:26.592Z,96443.34
2022-08-07T03:54:57.265Z,96444.28
2022-08-07T03:58:34.914Z,96459.50
2022-08-07T04:00:21.031Z,96452.19
2022-08-07T04:02:56.633Z,96456.28
2022-08-07T04:05:24.028Z,96461.16
2022-08-07T04:08:06.937Z,96456.16
2022-08-07T04:10:38.731Z,96458.94
2022-08-07T04:13:07.806Z,96453.00
2022-08-07T04:15:42.994Z,96451.38
2022-08-07T04:18:56.560Z,96449.88
2022-08-07T04:20:59.216Z,96446.47
2022-08-07T04:23:43.514Z,96447.66
2022-08-07T04:26:16.857Z,96453.94
2022-08-07T04:28:48.372Z,96451.81
2022-08-07T04:31:20.296Z,96454.06
2022-08-07T04:34:02.950Z,96450.78
2022-08-07T04:36:29.557Z,96451.81
2022-08-07T04:38:56.518Z,96451.38
2022-08-07T04:41:24.923Z,96462.09
2022-08-07T04:44:12.498Z,96457.16
2022-08-07T04:47:07.953Z,96462.66
2022-08-07T04:50:03.527Z,96460.56
2022-08-07T04:53:03.802Z,96464.06
2022-08-07T04:58:10.696Z,96463.13
2022-08-07T05:01:39.049Z,96463.47
2022-08-07T05:04:18.611Z,96462.66
2022-08-07T05:06:56.787Z,96458.13
2022-08-07T05:09:45.489Z,96466.72
2022-08-07T05:12:26.573Z,96472.09
2022-08-07T05:15:04.573Z,96467.75
2022-08-07T05:17:52.968Z,96472.09
2022-08-07T05:20:25.765Z,96482.31
2022-08-07T05:22:57.870Z,96477.44
2022-08-07T05:25:54.461Z,96476.97
2022-08-07T05:28:20.339Z,96474.88
2022-08-07T05:30:52.127Z,96488.38
2022-08-07T05:33:20.751Z,96477.19
2022-08-07T05:35:50.684Z,96487.44
2022-08-07T05:38:58.217Z,96494.16
2022-08-07T05:41:12.253Z,96487.53
2022-08-07T05:44:07.945Z,96493.00
2022-08-07T05:46:34.860Z,96489.97
2022-08-07T05:49:11.746Z,96501.03
2022-08-07T05:51:40.035Z,96488.25
2022-08-07T05:54:29.295Z,96483.72
2022-08-07T05:56:56.961Z,96478.34
2022-08-07T05:59:25.721Z,96482.41
2022-08-07T06:01:57.171Z,96483.47
2022-08-07T06:04:26.346Z,96484.84
2022-08-07T06:07:03.862Z,96476.75
2022-08-07T06:10:03.875Z,96485.78
2022-08-07T06:12:27.768Z,96487.09
2022-08-07T06:15:05.094Z,96484.06
2022-08-07T06:17:32.745Z,96478.56
2022-08-07T06:20:05.688Z,96481.88
2022-08-07T06:22:38.812Z,96489.28
2022-08-07T06:25:10.173Z,96495.13
2022-08-07T06:28:00.623Z,96493.59
2022-08-07T06:30:24.287Z,96490.47
2022-08-07T06:33:02.360Z,96487.09
2022-08-07T06:35:39.204Z,96495.13
2022-08-07T06:38:20.670Z,96486.59
2022-08-07T06:40:51.229Z,96497.94
2022-08-07T06:43:22.174Z,96483.00
2022-08-07T06:45:49.286Z,96485.44
2022-08-07T06:48:16.224Z,96496.88
2022-08-07T06:50:52.939Z,96490.81
2022-08-07T06:55:29.493Z,96489.53
2022-08-07T06:56:14.817Z,96483.72
2022-08-07T07:00:14.774Z,96484.97
2022-08-07T07:01:44.115Z,96481.81
2022-08-07T07:04:33.056Z,96490.44
2022-08-07T07:07:10.489Z,96483.00
2022-08-07T07:09:50.869Z,96487.03
2022-08-07T07:12:48.659Z,96488.09
2022-08-07T07:15:32.736Z,96482.84
2022-08-07T07:18:33.091Z,96487.59
2022-08-07T07:21:19.895Z,96483.97
2022-08-07T07:24:10.987Z,96481.66
2022-08-07T07:26:37.815Z,96480.44
2022-08-07T07:29:56.912Z,96477.75
2022-08-07T07:31:57.904Z,96481.84
2022-08-07T07:34:31.083Z,96473.72
2022-08-07T07:37:14.765Z,96470.88
2022-08-07T07:39:55.373Z,96480.72
2022-08-07T07:42:33.093Z,96473.25
2022-08-07T07:45:05.919Z,96469.53
2022-08-07T07:47:42.708Z,96469.06
2022-08-07T07:50:33.223Z,96476.94
2022-08-07T07:53:05.956Z,96472.50
2022-08-07T07:55:54.661Z,96476.91
2022-08-07T07:58:29.386Z,96468.97
2022-08-07T08:00:58.516Z,96480.19
2022-08-07T08:04:06.090Z,96478.66
2022-08-07T08:06:17.649Z,96468.03
2022-08-07T08:08:45.098Z,96479.88
2022-08-07T08:11:17.835Z,96472.50
2022-08-07T08:14:02.817Z,96474.28
2022-08-07T08:16:35.436Z,96470.47
2022-08-07T08:19:17.804Z,96482.59
2022-08-07T08:22:10.619Z,96485.59
2022-08-07T08:25:18.674Z,96482.66
2022-08-07T08:27:57.322Z,96481.03
2022-08-07T08:30:29.657Z,96478.75
2022-08-07T08:33:01.917Z,96476.47
2022-08-07T08:35:42.949Z,96473.22
2022-08-07T08:38:17.192Z,96483.13
2022-08-07T08:40:54.305Z,96487.34
2022-08-07T08:43:58.619Z,96486.06
2022-08-07T08:46:49.180Z,96474.50
2022-08-07T08:50:02.406Z,96478.09
2022-08-07T08:52:36.186Z,96478.97
2022-08-07T08:55:21.345Z,96486.88
2022-08-07T08:58:08.831Z,96488.19
2022-08-07T09:00:51.798Z,96481.78
2022-08-07T09:03:47.444Z,96483.38
2022-08-07T09:06:37.628Z,96486.13
2022-08-07T09:09:48.224Z,96493.81
2022-08-07T09:12:59.591Z,96480.91
2022-08-07T09:16:21.670Z,96484.59
2022-08-07T09:19:03.603Z,96480.25
2022-08-07T09:22:09.635Z,96478.72
2022-08-07T09:25:00.580Z,96472.50
2022-08-07T09:28:00.240Z,96469.69
2022-08-07T09:30:41.887Z,96469.00
2022-08-07T09:33:56.624Z,96468.00
2022-08-07T09:36:42.741Z,96464.09
2022-08-07T09:39:55.454Z,96468.03
2022-08-07T09:42:24.973Z,96474.22
2022-08-07T09:47:23.619Z,96476.59
2022-08-07T09:50:02.026Z,96462.97
2022-08-07T09:52:09.661Z,96463.09
2022-08-07T09:54:44.396Z,96462.69
2022-08-07T09:57:26.590Z,96448.75
2022-08-07T10:00:09.172Z,96448.84
2022-08-07T10:03:08.226Z,96454.31
2022-08-07T10:06:12.268Z,96447.91
2022-08-07T10:09:15.218Z,96448.22
2022-08-07T10:12:15.184Z,96439.03
2022-08-07T10:15:04.237Z,96449.84
2022-08-07T10:18:01.087Z,96434.06
2022-08-07T10:20:35.375Z,96453.09
2022-08-07T10:23:17.130Z,96434.72
2022-08-07T10:26:25.437Z,96437.69
2022-08-07T10:29:26.008Z,96438.91
2022-08-07T10:32:50.926Z,96425.78
2022-08-07T10:35:55.613Z,96427.44
2022-08-07T10:38:48.403Z,96414.66
2022-08-07T10:41:47.507Z,96409.72
2022-08-07T10:44:09.767Z,96421.56
2022-08-07T10:46:48.830Z,96419.03
2022-08-07T10:49:49.585Z,96410.91
2022-08-07T10:52:19.213Z,96405.03
2022-08-07T10:55:01.898Z,96408.50
2022-08-07T10:58:09.009Z,96427.28
2022-08-07T11:01:11.769Z,96419.97
2022-08-07T11:03:55.245Z,96415.88
2022-08-07T11:06:47.888Z,96412.63
2022-08-07T11:10:07.340Z,96410.25
2022-08-07T11:12:18.945Z,96424.41
2022-08-07T11:15:26.338Z,96410.19
2022-08-07T11:18:13.791Z,96410.09
2022-08-07T11:21:04.287Z,96413.44
2022-08-07T11:23:48.304Z,96399.13
2022-08-07T11:26:33.652Z,96390.69
2022-08-07T11:29:42.093Z,96389.72
2022-08-07T11:32:26.139Z,96391.38
2022-08-07T11:34:59.769Z,96388.50
2022-08-07T11:37:58.136Z,96383.56
2022-08-07T11:40:56.109Z,96382.59
2022-08-07T11:43:54.173Z,96375.34
2022-08-07T11:46:48.608Z,96379.56
2022-08-07T11:50:11.235Z,96375.47
2022-08-07T11:52:38.056Z,96373.66
2022-08-07T11:56:08.699Z,96379.59
2022-08-07T11:58:16.122Z,96379.72
2022-08-07T12:01:05.282Z,96387.97
2022-08-07T12:03:54.549Z,96383.06
2022-08-07T12:06:55.412Z,96379.66
2022-08-07T12:09:46.230Z,96370.94
2022-08-07T12:12:17.969Z,96375.03
2022-08-07T12:15:01.436Z,96378.03
2022-08-07T12:17:58.728Z,96368.59
2022-08-07T12:20:46.342Z,96359.97
2022-08-07T12:24:06.984Z,96369.72
2022-08-07T12:26:44.836Z,96361.66
2022-08-07T12:29:38.155Z,96347.06
2022-08-07T12:32:21.921Z,96340.66
2022-08-07T12:34:55.758Z,96350.91
2022-08-07T12:37:28.474Z,96343.91
2022-08-07T12:40:36.381Z,96346.56
2022-08-07T12:43:03.682Z,96340.19
2022-08-07T12:45:59.052Z,96338.31
2022-08-07T12:48:52.151Z,96347.97
2022-08-07T12:51:46.685Z,96323.75
2022-08-07T12:54:54.316Z,96332.13
2022-08-07T12:57:29.975Z,96325.13
2022-08-07T13:00:20.959Z,96327.03
2022-08-07T13:03:27.563Z,96342.66
2022-08-07T13:07:00.105Z,96334.56
2022-08-07T13:10:19.471Z,96335.09
2022-08-07T13:13:47.254Z,96327.25
2022-08-07T13:16:25.669Z,96328.06
2022-08-07T13:19:45.652Z,96329.47
2022-08-07T13:22:28.338Z,96311.13
2022-08-07T13:25:02.473Z,96315.41
2022-08-07T13:28:10.742Z,96318.13
2022-08-07T13:30:40.401Z,96317.56
2022-08-07T13:34:31.913Z,96323.28
2022-08-07T13:36:22.151Z,96325.47
2022-08-07T13:39:02.756Z,96320.63
2022-08-07T13:41:47.612Z,96313.34
2022-08-07T13:44:25.996Z,96312.81
2022-08-07T13:46:58.857Z,96298.53
2022-08-07T13:50:34.442Z,96301.47
2022-08-07T13:52:32.194Z,96300.41
2022-08-07T13:55:13.202Z,96300.94
2022-08-07T13:58:28.139Z,96294.47
2022-08-07T14:01:10.824Z,96301.50
2022-08-07T14:04:06.791Z,96296.38
2022-08-07T14:06:35.974Z,96284.19
2022-08-07T14:09:06.001Z,96277.22
2022-08-07T14:12:00.369Z,96297.16
2022-08-07T14:14:39.982Z,96292.31
2022-08-07T14:17:32.251Z,96284.75
2022-08-07T14:20:42.188Z,96292.59
2022-08-07T14:22:59.112Z,96279.66
2022-08-07T14:25:39.700Z,96274.53
2022-08-07T14:28:15.696Z,96276.69
2022-08-07T14:30:52.093Z,96272.88
2022-08-07T14:33:22.286Z,96266.97
2022-08-07T14:38:50.499Z,96263.97
2022-08-07T14:41:33.879Z,96270.19
2022-08-07T14:44:16.389Z,96272.09
2022-08-07T14:46:56.473Z,96267.75
2022-08-07T14:49:58.227Z,96270.97
2022-08-07T14:55:17.674Z,96274.53
2022-08-07T14:57:55.139Z,96270.75
2022-08-07T15:00:32.058Z,96266.44
2022-08-07T15:03:18.659Z,96258.34
2022-08-07T15:05:54.180Z,96268.84
2022-08-07T15:08:32.868Z,96263.19
2022-08-07T15:11:10.868Z,96254.00
2022-08-07T15:13:53.387Z,96250.25
2022-08-07T15:19:18.439Z,96249.16
2022-08-07T15:22:04.190Z,96254.81
2022-08-07T15:25:15.570Z,96255.63
2022-08-07T15:27:23.752Z,96254.00
2022-08-07T15:30:06.690Z,96253.44
2022-08-07T15:42:42.097Z,96258.28
2022-08-07T15:44:09.278Z,96252.63
2022-08-07T15:50:05.634Z,96241.56
2022-08-07T15:52:30.473Z,96248.03
2022-08-07T15:55:02.598Z,96239.69
2022-08-07T15:57:47.961Z,96235.63
2022-08-07T16:00:32.214Z,96242.66
2022-08-07T16:03:21.532Z,96234.56
2022-08-07T16:06:01.532Z,96246.66
2022-08-07T16:08:38.360Z,96243.44
2022-08-07T16:11:17.397Z,96237.78
2022-08-07T16:14:05.752Z,96243.47
2022-08-07T16:16:49.396Z,96252.66
2022-08-07T16:19:19.077Z,96244.84
2022-08-07T16:22:55.673Z,96242.94
2022-08-07T16:25:56.088Z,96249.72
2022-08-07T16:29:18.586Z,96244.88
2022-08-07T16:31:51.275Z,96244.88
2022-08-07T16:34:48.739Z,96248.06
2022-08-07T16:38:06.696Z,96247.00
2022-08-07T16:40:23.377Z,96248.63
2022-08-07T16:43:13.641Z,96250.25
2022-08-07T16:46:21.012Z,96251.31
2022-08-07T16:49:03.934Z,96249.16
2022-08-07T16:52:41.630Z,96249.16
2022-08-07T16:54:55.485Z,96250.22
2022-08-07T16:58:02.391Z,96242.66
2022-08-07T17:00:41.841Z,96252.88
2022-08-07T17:03:11.372Z,96249.13
2022-08-07T17:06:29.130Z,96249.41
2022-08-07T17:09:10.458Z,96240.00
2022-08-07T17:12:01.385Z,96239.19
2022-08-07T17:14:43.886Z,96239.44
2022-08-07T17:17:47.847Z,96237.31
2022-08-07T17:20:41.817Z,96237.31
2022-08-07T17:23:46.103Z,96239.72
2022-08-07T17:26:30.750Z,96238.38
2022-08-07T17:30:12.598Z,96237.31
2022-08-07T17:32:30.687Z,96237.81
2022-08-07T17:35:51.557Z,96236.22
2022-08-07T17:38:08.391Z,96239.75
2022-08-07T17:42:01.042Z,96246.75
2022-08-07T17:44:02.286Z,96242.13
2022-08-07T17:46:52.269Z,96237.81
2022-08-07T17:49:44.575Z,96244.81
2022-08-07T17:52:31.085Z,96243.47
2022-08-07T17:55:14.032Z,96248.56
2022-08-07T17:57:58.998Z,96255.28
2022-08-07T18:00:34.595Z,96251.78
2022-08-07T18:04:03.980Z,96257.16
2022-08-07T18:06:36.728Z,96252.81
2022-08-07T18:09:06.314Z,96253.31
2022-08-07T18:12:17.329Z,96254.91
2022-08-07T18:14:44.995Z,96261.34
2022-08-07T18:18:44.740Z,96258.56
2022-08-07T18:21:10.963Z,96258.50
2022-08-07T18:23:43.238Z,96265.47
2022-08-07T18:26:20.339Z,96266.16
2022-08-07T18:29:05.654Z,96268.50
2022-08-07T18:32:07.216Z,96264.66
2022-08-07T18:35:00.877Z,96266.19
2022-08-07T18:38:55.183Z,96276.59
2022-08-07T18:40:59.801Z,96275.09
2022-08-07T18:44:03.690Z,96279.59
2022-08-07T18:47:00.487Z,96278.97
2022-08-07T18:50:30.307Z,96279.38
2022-08-07T18:53:06.089Z,96289.72
2022-08-07T18:55:57.165Z,96277.75
2022-08-07T18:59:04.979Z,96288.84
2022-08-07T19:02:17.452Z,96282.88
2022-08-07T19:04:57.455Z,96287.00
2022-08-07T19:07:36.311Z,96287.19
2022-08-07T19:10:22.709Z,96290.13
2022-08-07T19:13:11.868Z,96295.19
2022-08-07T19:17:01.153Z,96292.03
2022-08-07T19:19:13.248Z,96290.28
2022-08-07T19:22:05.176Z,96291.53
2022-08-07T19:24:48.784Z,96297.19
2022-08-07T19:28:58.621Z,96295.44
2022-08-07T19:31:02.070Z,96297.94
2022-08-07T19:33:08.229Z,96301.59
2022-08-07T19:35:41.431Z,96305.47
2022-08-07T19:38:17.145Z,96300.44
2022-08-07T19:40:49.329Z,96298.50
2022-08-07T19:43:48.680Z,96307.00
2022-08-07T19:46:14.740Z,96303.09
2022-08-07T19:48:53.800Z,96309.41
2022-08-07T19:51:50.494Z,96304.69
2022-08-07T19:54:32.177Z,96303.91
2022-08-07T19:58:04.126Z,96310.19
2022-08-07T19:59:54.212Z,96311.28
2022-08-07T20:02:34.831Z,96308.03
2022-08-07T20:05:12.480Z,96316.44
2022-08-07T20:07:46.638Z,96313.66
2022-08-07T20:10:38.366Z,96313.44
2022-08-07T20:13:22.419Z,96308.91
2022-08-07T20:15:50.108Z,96316.03
2022-08-07T20:18:20.160Z,96307.69
2022-08-07T20:20:47.418Z,96311.16
2022-08-07T20:23:32.753Z,96314.91
2022-08-07T20:26:10.279Z,96308.28
2022-08-07T20:28:39.827Z,96315.03
2022-08-07T20:31:21.377Z,96316.06
2022-08-07T20:33:57.359Z,96318.38
2022-08-07T20:36:27.266Z,96306.06
2022-08-07T20:39:11.636Z,96306.97
2022-08-07T20:41:48.727Z,96305.34
2022-08-07T20:44:16.277Z,96312.19
2022-08-07T20:46:46.178Z,96314.28
2022-08-07T20:49:59.134Z,96319.97
2022-08-07T20:52:02.329Z,96316.94
2022-08-07T20:54:33.348Z,96315.19
2022-08-07T20:57:04.584Z,96305.31
2022-08-07T21:00:06.868Z,96314.38
2022-08-07T21:02:54.061Z,96308.78
2022-08-07T21:05:42.595Z,96312.47
2022-08-07T21:08:28.754Z,96308.28
2022-08-07T21:11:10.519Z,96303.38
2022-08-07T21:13:43.720Z,96306.63
2022-08-07T21:16:29.156Z,96318.50
2022-08-07T21:18:59.736Z,96312.69
2022-08-07T21:21:33.270Z,96308.53
2022-08-07T21:24:26.377Z,96311.44
2022-08-07T21:27:23.425Z,96314.53
2022-08-07T21:30:04.102Z,96305.97
2022-08-07T21:32:52.094Z,96317.44
2022-08-07T21:35:34.969Z,96309.78
2022-08-07T21:38:14.197Z,96317.78
2022-08-07T21:40:47.060Z,96309.53
2022-08-07T21:43:56.240Z,96316.72
2022-08-07T21:46:36.609Z,96317.78
2022-08-07T21:49:15.059Z,96315.34
2022-08-07T21:51:57.656Z,96317.19
2022-08-07T21:54:46.251Z,96319.47
2022-08-07T21:57:39.407Z,96319.06
2022-08-07T22:00:22.169Z,96328.44
2022-08-07T22:02:59.434Z,96325.66
2022-08-07T22:05:44.219Z,96326.09
2022-08-07T22:08:18.414Z,96314.84
2022-08-07T22:10:49.663Z,96322.84
2022-08-07T22:13:17.412Z,96316.81
2022-08-07T22:16:42.455Z,96326.84
2022-08-07T22:19:01.088Z,96318.59
2022-08-07T22:22:02.570Z,96314.88
2022-08-07T22:24:32.849Z,96308.16
2022-08-07T22:27:06.526Z,96308.03
2022-08-07T22:29:48.083Z,96313.78
2022-08-07T22:32:42.332Z,96308.03
2022-08-07T22:35:11.519Z,96300.56
2022-08-07T22:38:07.252Z,96289.53
2022-08-07T22:40:56.777Z,96292.66
2022-08-07T22:43:33.929Z,96294.09
2022-08-07T22:46:21.604Z,96293.34
2022-08-07T22:49:07.652Z,96297.41
2022-08-07T22:51:51.962Z,96284.31
2022-08-07T22:54:37.433Z,96292.53
2022-08-07T22:57:51.108Z,96289.50
2022-08-07T23:00:28.390Z,96290.09
2022-08-07T23:03:14.210Z,96289.28
2022-08-07T23:06:15.257Z,96292.53
2022-08-07T23:08:58.599Z,96294.97
2022-08-07T23:12:10.798Z,96290.09
2022-08-07T23:16:04.605Z,96298.69
2022-08-07T23:18:01.300Z,96300.53
2022-08-07T23:20:55.714Z,96286.41
2022-08-07T23:24:08.996Z,96294.63
2022-08-07T23:26:57.250Z,96292.78
2022-08-07T23:30:35.700Z,96290.56
2022-08-07T23:34:20.636Z,96284.03
2022-08-07T23:35:54.605Z,96282.28
2022-08-07T23:38:43.023Z,96282.06
2022-08-07T23:41:47.853Z,96288.59
2022-08-07T23:44:52.344Z,96278.47
2022-08-07T23:47:29.737Z,96275.72
2022-08-07T23:50:26.686Z,96274.69
2022-08-07T23:53:08.364Z,96286.84
2022-08-07T23:55:55.334Z,96290.31
2022-08-07T23:58:37.700Z,96291.38
